Pontotoc, Oklahoma
Current Conditions -  °F | °C
As of 12:55 AM on Monday 22 Dec 2014 (Local Time) from KADH Reporting Station
Overcast Overcast  
Wind Chill: 41°   Ceiling: 500
Heat Index: 46°   Visibility: 7mi
Dew Point: 46°   Wind: 12mph
Humidity: 100%   Direction: 150°SSE
Pressure: 29.65"   Gusts: NA
Location:  34.7965°N, 96.7902°W
Report Text: KADH 220655Z AUTO 15010KT 7SM OVC005 08/08 A2965 RMK AO2
Loading
Personal Weather Stations






























Interactive Weather Map New forecast layout! Learn more

10-Day Weather Forecast

Advertisements
Track Severe Weather on mobile